sensor_id;sensor_type;location;lat;lon;timestamp;temperature;humidity
21762;DHT22;11203;50.870;20.682;2023-04-15T00:00:29;9.90;99.90
21762;DHT22;11203;50.870;20.682;2023-04-15T00:03:13;9.90;99.90
21762;DHT22;11203;50.870;20.682;2023-04-15T00:05:39;9.90;99.90
21762;DHT22;11203;50.870;20.682;2023-04-15T00:08:06;9.90;99.90
21762;DHT22;11203;50.870;20.682;2023-04-15T00:10:32;9.90;99.90
21762;DHT22;11203;50.870;20.682;2023-04-15T00:12:58;9.80;99.90
21762;DHT22;11203;50.870;20.682;2023-04-15T00:15:25;9.80;99.90
21762;DHT22;11203;50.870;20.682;2023-04-15T00:17:52;9.90;99.90
21762;DHT22;11203;50.870;20.682;2023-04-15T00:20:18;9.80;99.90
21762;DHT22;11203;50.870;20.682;2023-04-15T00:22:44;9.80;99.90
21762;DHT22;11203;50.870;20.682;2023-04-15T00:25:11;9.80;99.90
21762;DHT22;11203;50.870;20.682;2023-04-15T00:27:37;9.90;99.90
21762;DHT22;11203;50.870;20.682;2023-04-15T00:30:04;9.90;99.90
21762;DHT22;11203;50.870;20.682;2023-04-15T00:32:30;9.80;99.90
21762;DHT22;11203;50.870;20.682;2023-04-15T00:34:56;9.80;99.90
21762;DHT22;11203;50.870;20.682;2023-04-15T00:37:23;9.80;99.90
21762;DHT22;11203;50.870;20.682;2023-04-15T00:39:49;9.80;99.90
21762;DHT22;11203;50.870;20.682;2023-04-15T00:42:15;9.80;99.90
21762;DHT22;11203;50.870;20.682;2023-04-15T00:44:42;9.80;99.90
21762;DHT22;11203;50.870;20.682;2023-04-15T00:47:08;9.80;99.90
21762;DHT22;11203;50.870;20.682;2023-04-15T00:49:35;9.80;99.90
21762;DHT22;11203;50.870;20.682;2023-04-15T00:52:02;9.80;99.90
21762;DHT22;11203;50.870;20.682;2023-04-15T00:54:31;9.80;99.90
21762;DHT22;11203;50.870;20.682;2023-04-15T00:56:57;9.80;99.90
21762;DHT22;11203;50.870;20.682;2023-04-15T00:59:23;9.90;99.90
21762;DHT22;11203;50.870;20.682;2023-04-15T01:01:50;9.80;99.90
21762;DHT22;11203;50.870;20.682;2023-04-15T01:04:16;9.80;99.90
21762;DHT22;11203;50.870;20.682;2023-04-15T01:06:42;9.80;99.90
21762;DHT22;11203;50.870;20.682;2023-04-15T01:09:10;9.80;99.90
21762;DHT22;11203;50.870;20.682;2023-04-15T01:11:36;9.80;99.90
21762;DHT22;11203;50.870;20.682;2023-04-15T01:14:03;9.80;99.90
21762;DHT22;11203;50.870;20.682;2023-04-15T01:16:29;9.70;99.90
21762;DHT22;11203;50.870;20.682;2023-04-15T01:18:56;9.80;99.90
21762;DHT22;11203;50.870;20.682;2023-04-15T01:21:22;9.70;99.90
21762;DHT22;11203;50.870;20.682;2023-04-15T01:23:50;9.70;99.90
21762;DHT22;11203;50.870;20.682;2023-04-15T01:26:17;9.70;99.90
21762;DHT22;11203;50.870;20.682;2023-04-15T01:28:44;9.60;99.90
21762;DHT22;11203;50.870;20.682;2023-04-15T01:31:12;9.60;99.90
21762;DHT22;11203;50.870;20.682;2023-04-15T01:33:40;9.70;99.90
21762;DHT22;11203;50.870;20.682;2023-04-15T01:36:08;9.70;99.90
21762;DHT22;11203;50.870;20.682;2023-04-15T01:38:36;9.60;99.90
21762;DHT22;11203;50.870;20.682;2023-04-15T01:41:03;9.60;99.90
21762;DHT22;11203;50.870;20.682;2023-04-15T01:43:29;9.60;99.90
21762;DHT22;11203;50.870;20.682;2023-04-15T01:45:55;9.60;99.90
21762;DHT22;11203;50.870;20.682;2023-04-15T01:48:22;9.60;99.90
21762;DHT22;11203;50.870;20.682;2023-04-15T01:50:48;9.60;99.90
21762;DHT22;11203;50.870;20.682;2023-04-15T01:53:14;9.60;99.90
21762;DHT22;11203;50.870;20.682;2023-04-15T01:55:42;9.60;99.90
21762;DHT22;11203;50.870;20.682;2023-04-15T01:58:08;9.60;99.90
21762;DHT22;11203;50.870;20.682;2023-04-15T02:00:34;9.60;99.90
21762;DHT22;11203;50.870;20.682;2023-04-15T02:03:00;9.60;99.90
21762;DHT22;11203;50.870;20.682;2023-04-15T02:05:26;9.60;99.90
21762;DHT22;11203;50.870;20.682;2023-04-15T02:07:52;9.60;99.90
21762;DHT22;11203;50.870;20.682;2023-04-15T02:10:19;9.60;99.90
21762;DHT22;11203;50.870;20.682;2023-04-15T02:12:45;9.60;99.90
21762;DHT22;11203;50.870;20.682;2023-04-15T02:15:11;9.60;99.90
21762;DHT22;11203;50.870;20.682;2023-04-15T02:17:37;9.60;99.90
21762;DHT22;11203;50.870;20.682;2023-04-15T02:20:03;9.50;99.90
21762;DHT22;11203;50.870;20.682;2023-04-15T02:22:34;9.50;99.90
21762;DHT22;11203;50.870;20.682;2023-04-15T02:25:00;9.50;99.90
21762;DHT22;11203;50.870;20.682;2023-04-15T02:27:26;9.50;99.90
21762;DHT22;11203;50.870;20.682;2023-04-15T02:29:54;9.50;99.90
21762;DHT22;11203;50.870;20.682;2023-04-15T02:32:20;9.50;99.90
21762;DHT22;11203;50.870;20.682;2023-04-15T02:34:48;9.50;99.90
21762;DHT22;11203;50.870;20.682;2023-04-15T02:37:15;9.40;99.90
21762;DHT22;11203;50.870;20.682;2023-04-15T02:39:43;9.40;99.90
21762;DHT22;11203;50.870;20.682;2023-04-15T02:42:10;9.40;99.90
21762;DHT22;11203;50.870;20.682;2023-04-15T02:44:36;9.40;99.90
21762;DHT22;11203;50.870;20.682;2023-04-15T02:47:02;9.50;99.90
21762;DHT22;11203;50.870;20.682;2023-04-15T02:49:29;9.40;99.90
21762;DHT22;11203;50.870;20.682;2023-04-15T02:51:56;9.50;99.90
21762;DHT22;11203;50.870;20.682;2023-04-15T02:54:23;9.40;99.90
21762;DHT22;11203;50.870;20.682;2023-04-15T02:56:49;9.40;99.90
21762;DHT22;11203;50.870;20.682;2023-04-15T02:59:15;9.30;99.90
21762;DHT22;11203;50.870;20.682;2023-04-15T03:01:41;9.30;99.90
21762;DHT22;11203;50.870;20.682;2023-04-15T03:04:08;9.30;99.90
21762;DHT22;11203;50.870;20.682;2023-04-15T03:06:34;9.30;99.90
21762;DHT22;11203;50.870;20.682;2023-04-15T03:09:00;9.30;99.90
21762;DHT22;11203;50.870;20.682;2023-04-15T03:11:30;9.30;99.90
21762;DHT22;11203;50.870;20.682;2023-04-15T03:13:56;9.30;99.90
21762;DHT22;11203;50.870;20.682;2023-04-15T03:16:24;9.30;99.90
21762;DHT22;11203;50.870;20.682;2023-04-15T03:18:50;9.30;99.90
21762;DHT22;11203;50.870;20.682;2023-04-15T03:21:16;9.40;99.90
21762;DHT22;11203;50.870;20.682;2023-04-15T03:23:43;9.40;99.90
21762;DHT22;11203;50.870;20.682;2023-04-15T03:26:26;9.40;99.90
21762;DHT22;11203;50.870;20.682;2023-04-15T03:28:54;9.40;99.90
21762;DHT22;11203;50.870;20.682;2023-04-15T03:31:21;9.40;99.90
21762;DHT22;11203;50.870;20.682;2023-04-15T03:33:47;9.40;99.90
21762;DHT22;11203;50.870;20.682;2023-04-15T03:36:13;9.40;99.90
21762;DHT22;11203;50.870;20.682;2023-04-15T03:38:40;9.30;99.90
21762;DHT22;11203;50.870;20.682;2023-04-15T03:41:06;9.40;99.90
21762;DHT22;11203;50.870;20.682;2023-04-15T03:43:34;9.40;99.90
21762;DHT22;11203;50.870;20.682;2023-04-15T03:46:01;9.40;99.90
21762;DHT22;11203;50.870;20.682;2023-04-15T03:48:27;9.40;99.90
21762;DHT22;11203;50.870;20.682;2023-04-15T03:50:53;9.40;99.90
21762;DHT22;11203;50.870;20.682;2023-04-15T03:53:20;9.40;99.90
21762;DHT22;11203;50.870;20.682;2023-04-15T03:55:47;9.30;99.90
21762;DHT22;11203;50.870;20.682;2023-04-15T03:58:13;9.40;99.90
21762;DHT22;11203;50.870;20.682;2023-04-15T04:00:39;9.30;99.90
21762;DHT22;11203;50.870;20.682;2023-04-15T04:03:06;9.30;99.90
21762;DHT22;11203;50.870;20.682;2023-04-15T04:05:32;9.30;99.90
21762;DHT22;11203;50.870;20.682;2023-04-15T04:08:01;9.30;99.90
21762;DHT22;11203;50.870;20.682;2023-04-15T04:10:27;9.30;99.90
21762;DHT22;11203;50.870;20.682;2023-04-15T04:12:53;9.30;99.90
21762;DHT22;11203;50.870;20.682;2023-04-15T04:15:21;9.20;99.90
21762;DHT22;11203;50.870;20.682;2023-04-15T04:17:47;9.30;99.90
21762;DHT22;11203;50.870;20.682;2023-04-15T04:20:13;9.30;99.90
21762;DHT22;11203;50.870;20.682;2023-04-15T04:22:39;9.20;99.90
21762;DHT22;11203;50.870;20.682;2023-04-15T04:25:07;9.20;99.90
21762;DHT22;11203;50.870;20.682;2023-04-15T04:27:35;9.20;99.90
21762;DHT22;11203;50.870;20.682;2023-04-15T04:30:01;9.20;99.90
21762;DHT22;11203;50.870;20.682;2023-04-15T04:32:27;9.20;99.90
21762;DHT22;11203;50.870;20.682;2023-04-15T04:34:53;9.20;99.90
21762;DHT22;11203;50.870;20.682;2023-04-15T04:37:21;9.20;99.90
21762;DHT22;11203;50.870;20.682;2023-04-15T04:39:48;9.20;99.90
21762;DHT22;11203;50.870;20.682;2023-04-15T04:42:14;9.20;99.90
21762;DHT22;11203;50.870;20.682;2023-04-15T04:44:40;9.20;99.90
21762;DHT22;11203;50.870;20.682;2023-04-15T04:47:07;9.30;99.90
21762;DHT22;11203;50.870;20.682;2023-04-15T04:49:33;9.20;99.90
21762;DHT22;11203;50.870;20.682;2023-04-15T04:51:59;9.20;99.90
21762;DHT22;11203;50.870;20.682;2023-04-15T04:54:25;9.30;99.90
21762;DHT22;11203;50.870;20.682;2023-04-15T04:56:52;9.20;99.90
21762;DHT22;11203;50.870;20.682;2023-04-15T04:59:18;9.30;99.90
21762;DHT22;11203;50.870;20.682;2023-04-15T05:01:44;9.30;99.90
21762;DHT22;11203;50.870;20.682;2023-04-15T05:04:11;9.30;99.90
21762;DHT22;11203;50.870;20.682;2023-04-15T05:06:37;9.30;99.90
21762;DHT22;11203;50.870;20.682;2023-04-15T05:09:03;9.40;99.90
21762;DHT22;11203;50.870;20.682;2023-04-15T05:11:29;9.40;99.90
21762;DHT22;11203;50.870;20.682;2023-04-15T05:13:55;9.40;99.90
21762;DHT22;11203;50.870;20.682;2023-04-15T05:16:22;9.40;99.90
21762;DHT22;11203;50.870;20.682;2023-04-15T05:18:50;9.40;99.90
21762;DHT22;11203;50.870;20.682;2023-04-15T05:21:16;9.50;99.90
21762;DHT22;11203;50.870;20.682;2023-04-15T05:23:43;9.50;99.90
21762;DHT22;11203;50.870;20.682;2023-04-15T05:26:08;9.40;99.90
21762;DHT22;11203;50.870;20.682;2023-04-15T05:28:35;9.50;99.90
21762;DHT22;11203;50.870;20.682;2023-04-15T05:31:01;9.50;99.90
21762;DHT22;11203;50.870;20.682;2023-04-15T05:33:27;9.50;99.90
21762;DHT22;11203;50.870;20.682;2023-04-15T05:35:53;9.50;99.90
21762;DHT22;11203;50.870;20.682;2023-04-15T05:38:19;9.50;99.90
21762;DHT22;11203;50.870;20.682;2023-04-15T05:40:45;9.50;99.90
21762;DHT22;11203;50.870;20.682;2023-04-15T05:43:11;9.50;99.90
21762;DHT22;11203;50.870;20.682;2023-04-15T05:45:37;9.50;99.90
21762;DHT22;11203;50.870;20.682;2023-04-15T05:48:04;9.50;99.90
21762;DHT22;11203;50.870;20.682;2023-04-15T05:50:30;9.50;99.90
21762;DHT22;11203;50.870;20.682;2023-04-15T05:52:56;9.50;99.90
21762;DHT22;11203;50.870;20.682;2023-04-15T05:55:22;9.50;99.90
21762;DHT22;11203;50.870;20.682;2023-04-15T05:57:48;9.60;99.90
21762;DHT22;11203;50.870;20.682;2023-04-15T06:00:14;9.70;99.90
21762;DHT22;11203;50.870;20.682;2023-04-15T06:02:41;9.70;99.90
21762;DHT22;11203;50.870;20.682;2023-04-15T06:05:07;9.80;99.90
21762;DHT22;11203;50.870;20.682;2023-04-15T06:07:35;9.80;99.90
21762;DHT22;11203;50.870;20.682;2023-04-15T06:10:02;9.90;99.90
21762;DHT22;11203;50.870;20.682;2023-04-15T06:12:29;9.80;99.90
21762;DHT22;11203;50.870;20.682;2023-04-15T06:14:56;9.80;99.90
21762;DHT22;11203;50.870;20.682;2023-04-15T06:17:23;9.80;99.90
21762;DHT22;11203;50.870;20.682;2023-04-15T06:19:49;9.80;99.90
21762;DHT22;11203;50.870;20.682;2023-04-15T06:22:23;9.80;99.90
21762;DHT22;11203;50.870;20.682;2023-04-15T06:24:50;9.90;99.90
21762;DHT22;11203;50.870;20.682;2023-04-15T06:27:16;9.90;99.90
21762;DHT22;11203;50.870;20.682;2023-04-15T06:29:42;9.90;99.90
21762;DHT22;11203;50.870;20.682;2023-04-15T06:32:09;10.00;99.90
21762;DHT22;11203;50.870;20.682;2023-04-15T06:34:35;9.90;99.90
21762;DHT22;11203;50.870;20.682;2023-04-15T06:37:01;9.90;99.90
21762;DHT22;11203;50.870;20.682;2023-04-15T06:39:27;9.90;99.90
21762;DHT22;11203;50.870;20.682;2023-04-15T06:41:53;9.90;99.90
21762;DHT22;11203;50.870;20.682;2023-04-15T06:44:21;10.10;99.90
21762;DHT22;11203;50.870;20.682;2023-04-15T06:46:47;10.20;99.90
21762;DHT22;11203;50.870;20.682;2023-04-15T06:49:13;10.20;99.90
21762;DHT22;11203;50.870;20.682;2023-04-15T06:51:39;10.20;99.90
21762;DHT22;11203;50.870;20.682;2023-04-15T06:54:05;10.30;99.90
21762;DHT22;11203;50.870;20.682;2023-04-15T06:56:32;10.30;99.90
21762;DHT22;11203;50.870;20.682;2023-04-15T06:58:58;10.40;99.90
21762;DHT22;11203;50.870;20.682;2023-04-15T07:01:24;10.40;99.90
21762;DHT22;11203;50.870;20.682;2023-04-15T07:03:50;10.50;99.90
21762;DHT22;11203;50.870;20.682;2023-04-15T07:06:20;10.60;99.90
21762;DHT22;11203;50.870;20.682;2023-04-15T07:08:46;10.60;99.90
21762;DHT22;11203;50.870;20.682;2023-04-15T07:11:13;10.60;99.90
21762;DHT22;11203;50.870;20.682;2023-04-15T07:13:39;10.60;99.90
21762;DHT22;11203;50.870;20.682;2023-04-15T07:16:05;10.70;99.90
21762;DHT22;11203;50.870;20.682;2023-04-15T07:18:32;10.80;99.90
21762;DHT22;11203;50.870;20.682;2023-04-15T07:20:58;10.80;99.90
21762;DHT22;11203;50.870;20.682;2023-04-15T07:23:24;10.90;99.90
21762;DHT22;11203;50.870;20.682;2023-04-15T07:25:50;11.00;99.90
21762;DHT22;11203;50.870;20.682;2023-04-15T07:28:16;11.00;99.90
21762;DHT22;11203;50.870;20.682;2023-04-15T07:30:43;11.10;99.90
21762;DHT22;11203;50.870;20.682;2023-04-15T07:33:09;11.10;99.90
21762;DHT22;11203;50.870;20.682;2023-04-15T07:35:35;11.20;99.90
21762;DHT22;11203;50.870;20.682;2023-04-15T07:38:01;11.30;99.90
21762;DHT22;11203;50.870;20.682;2023-04-15T07:40:27;11.40;99.90
21762;DHT22;11203;50.870;20.682;2023-04-15T07:42:55;11.60;99.90
21762;DHT22;11203;50.870;20.682;2023-04-15T07:45:22;11.60;99.90
21762;DHT22;11203;50.870;20.682;2023-04-15T07:47:47;11.60;99.90
21762;DHT22;11203;50.870;20.682;2023-04-15T07:50:16;11.50;99.90
21762;DHT22;11203;50.870;20.682;2023-04-15T07:52:42;11.70;99.90
21762;DHT22;11203;50.870;20.682;2023-04-15T07:55:09;11.80;99.90
21762;DHT22;11203;50.870;20.682;2023-04-15T07:57:35;12.00;99.90
21762;DHT22;11203;50.870;20.682;2023-04-15T08:00:03;12.00;99.90
21762;DHT22;11203;50.870;20.682;2023-04-15T08:02:30;11.90;99.90
21762;DHT22;11203;50.870;20.682;2023-04-15T08:04:58;12.30;99.90
21762;DHT22;11203;50.870;20.682;2023-04-15T08:07:25;12.30;99.90
21762;DHT22;11203;50.870;20.682;2023-04-15T08:09:52;12.20;99.90
21762;DHT22;11203;50.870;20.682;2023-04-15T08:12:18;12.20;99.90
21762;DHT22;11203;50.870;20.682;2023-04-15T08:14:44;12.20;99.90
21762;DHT22;11203;50.870;20.682;2023-04-15T08:17:10;12.10;99.90
21762;DHT22;11203;50.870;20.682;2023-04-15T08:19:36;12.10;99.90
21762;DHT22;11203;50.870;20.682;2023-04-15T08:22:02;12.20;99.90
21762;DHT22;11203;50.870;20.682;2023-04-15T08:24:30;12.30;99.90
21762;DHT22;11203;50.870;20.682;2023-04-15T08:26:56;12.30;99.90
21762;DHT22;11203;50.870;20.682;2023-04-15T08:29:22;12.40;99.90
21762;DHT22;11203;50.870;20.682;2023-04-15T08:31:48;12.40;99.90
21762;DHT22;11203;50.870;20.682;2023-04-15T08:34:14;12.30;99.90
21762;DHT22;11203;50.870;20.682;2023-04-15T08:36:41;12.30;99.90
21762;DHT22;11203;50.870;20.682;2023-04-15T08:39:07;12.20;99.90
21762;DHT22;11203;50.870;20.682;2023-04-15T08:44:06;12.20;99.90
21762;DHT22;11203;50.870;20.682;2023-04-15T08:46:32;12.50;99.90
21762;DHT22;11203;50.870;20.682;2023-04-15T08:49:09;12.60;99.90
21762;DHT22;11203;50.870;20.682;2023-04-15T08:51:36;12.70;99.90
21762;DHT22;11203;50.870;20.682;2023-04-15T08:54:04;12.80;99.90
21762;DHT22;11203;50.870;20.682;2023-04-15T08:56:31;12.80;99.90
21762;DHT22;11203;50.870;20.682;2023-04-15T08:58:58;13.00;99.90
21762;DHT22;11203;50.870;20.682;2023-04-15T09:01:25;13.20;99.90
21762;DHT22;11203;50.870;20.682;2023-04-15T09:03:52;13.40;99.90
21762;DHT22;11203;50.870;20.682;2023-04-15T09:06:22;13.60;99.90
21762;DHT22;11203;50.870;20.682;2023-04-15T09:08:49;13.50;99.90
21762;DHT22;11203;50.870;20.682;2023-04-15T09:11:16;13.70;99.90
21762;DHT22;11203;50.870;20.682;2023-04-15T09:13:43;13.80;99.90
21762;DHT22;11203;50.870;20.682;2023-04-15T09:16:09;13.70;99.90
21762;DHT22;11203;50.870;20.682;2023-04-15T09:18:37;13.90;99.90
21762;DHT22;11203;50.870;20.682;2023-04-15T09:21:14;14.00;99.90
21762;DHT22;11203;50.870;20.682;2023-04-15T09:23:58;13.70;99.90
21762;DHT22;11203;50.870;20.682;2023-04-15T09:26:33;13.40;99.90
21762;DHT22;11203;50.870;20.682;2023-04-15T09:29:09;13.40;99.90
21762;DHT22;11203;50.870;20.682;2023-04-15T09:31:38;13.50;99.90
21762;DHT22;11203;50.870;20.682;2023-04-15T09:34:06;13.20;99.90
21762;DHT22;11203;50.870;20.682;2023-04-15T09:39:12;13.70;99.90
21762;DHT22;11203;50.870;20.682;2023-04-15T09:41:39;13.80;99.90
21762;DHT22;11203;50.870;20.682;2023-04-15T09:44:06;13.40;99.90
21762;DHT22;11203;50.870;20.682;2023-04-15T09:46:47;13.60;99.90
21762;DHT22;11203;50.870;20.682;2023-04-15T09:49:13;13.60;99.90
21762;DHT22;11203;50.870;20.682;2023-04-15T09:51:40;13.40;99.90
21762;DHT22;11203;50.870;20.682;2023-04-15T09:54:07;13.30;99.90
21762;DHT22;11203;50.870;20.682;2023-04-15T09:56:36;13.10;99.90
21762;DHT22;11203;50.870;20.682;2023-04-15T09:59:07;13.20;99.90
21762;DHT22;11203;50.870;20.682;2023-04-15T10:01:34;13.40;99.90
21762;DHT22;11203;50.870;20.682;2023-04-15T10:04:02;13.30;99.90
21762;DHT22;11203;50.870;20.682;2023-04-15T10:06:29;13.50;99.90
21762;DHT22;11203;50.870;20.682;2023-04-15T10:08:57;13.60;99.90
21762;DHT22;11203;50.870;20.682;2023-04-15T10:11:28;13.80;99.90
21762;DHT22;11203;50.870;20.682;2023-04-15T10:13:55;13.80;99.90
21762;DHT22;11203;50.870;20.682;2023-04-15T10:16:26;14.00;99.90
21762;DHT22;11203;50.870;20.682;2023-04-15T10:18:56;14.10;99.90
21762;DHT22;11203;50.870;20.682;2023-04-15T10:21:27;14.20;99.90
21762;DHT22;11203;50.870;20.682;2023-04-15T10:23:57;14.00;99.90
21762;DHT22;11203;50.870;20.682;2023-04-15T10:26:23;14.20;99.90
21762;DHT22;11203;50.870;20.682;2023-04-15T10:28:50;14.30;99.90
21762;DHT22;11203;50.870;20.682;2023-04-15T10:31:18;14.40;99.90
21762;DHT22;11203;50.870;20.682;2023-04-15T10:33:45;14.30;99.90
21762;DHT22;11203;50.870;20.682;2023-04-15T10:36:13;14.20;99.90
21762;DHT22;11203;50.870;20.682;2023-04-15T10:38:44;14.30;99.90
21762;DHT22;11203;50.870;20.682;2023-04-15T10:43:59;14.50;99.90
21762;DHT22;11203;50.870;20.682;2023-04-15T10:46:43;14.20;99.90
21762;DHT22;11203;50.870;20.682;2023-04-15T10:49:13;14.40;99.90
21762;DHT22;11203;50.870;20.682;2023-04-15T10:51:43;14.30;99.90
21762;DHT22;11203;50.870;20.682;2023-04-15T10:59:36;14.40;99.90
21762;DHT22;11203;50.870;20.682;2023-04-15T11:02:05;14.10;99.90
21762;DHT22;11203;50.870;20.682;2023-04-15T11:13:14;14.40;99.90
21762;DHT22;11203;50.870;20.682;2023-04-15T11:15:46;14.20;99.90
21762;DHT22;11203;50.870;20.682;2023-04-15T11:18:19;14.20;99.90
21762;DHT22;11203;50.870;20.682;2023-04-15T11:23:27;14.80;99.90
21762;DHT22;11203;50.870;20.682;2023-04-15T11:25:55;14.90;99.90
21762;DHT22;11203;50.870;20.682;2023-04-15T11:28:26;14.60;99.90
21762;DHT22;11203;50.870;20.682;2023-04-15T11:30:53;14.60;99.90
21762;DHT22;11203;50.870;20.682;2023-04-15T11:33:21;14.70;99.90
21762;DHT22;11203;50.870;20.682;2023-04-15T11:35:49;14.80;99.90
21762;DHT22;11203;50.870;20.682;2023-04-15T11:38:15;14.80;99.90
21762;DHT22;11203;50.870;20.682;2023-04-15T11:40:42;14.70;99.90
21762;DHT22;11203;50.870;20.682;2023-04-15T11:43:17;14.60;99.90
21762;DHT22;11203;50.870;20.682;2023-04-15T11:45:57;14.60;99.90
21762;DHT22;11203;50.870;20.682;2023-04-15T11:48:33;14.60;99.90
21762;DHT22;11203;50.870;20.682;2023-04-15T11:51:04;14.40;99.90
21762;DHT22;11203;50.870;20.682;2023-04-15T11:56:15;14.80;99.90
21762;DHT22;11203;50.870;20.682;2023-04-15T11:58:42;14.80;99.90
21762;DHT22;11203;50.870;20.682;2023-04-15T12:01:11;14.80;99.90
21762;DHT22;11203;50.870;20.682;2023-04-15T12:03:39;15.10;99.90
21762;DHT22;11203;50.870;20.682;2023-04-15T12:06:20;15.10;99.90
21762;DHT22;11203;50.870;20.682;2023-04-15T12:13:58;15.50;99.90
21762;DHT22;11203;50.870;20.682;2023-04-15T12:16:40;15.30;99.90
21762;DHT22;11203;50.870;20.682;2023-04-15T12:19:13;15.60;99.20
21762;DHT22;11203;50.870;20.682;2023-04-15T12:21:43;15.70;98.30
21762;DHT22;11203;50.870;20.682;2023-04-15T12:24:11;15.70;98.70
21762;DHT22;11203;50.870;20.682;2023-04-15T12:26:44;15.80;97.30
21762;DHT22;11203;50.870;20.682;2023-04-15T12:29:12;15.90;97.70
21762;DHT22;11203;50.870;20.682;2023-04-15T12:31:57;16.10;96.30
21762;DHT22;11203;50.870;20.682;2023-04-15T12:34:33;16.40;97.80
21762;DHT22;11203;50.870;20.682;2023-04-15T12:37:05;16.30;91.80
21762;DHT22;11203;50.870;20.682;2023-04-15T12:39:43;16.30;93.20
21762;DHT22;11203;50.870;20.682;2023-04-15T12:42:11;16.20;92.20
21762;DHT22;11203;50.870;20.682;2023-04-15T12:44:37;16.00;91.60
21762;DHT22;11203;50.870;20.682;2023-04-15T12:47:04;15.80;90.20
21762;DHT22;11203;50.870;20.682;2023-04-15T12:49:31;15.70;90.90
21762;DHT22;11203;50.870;20.682;2023-04-15T12:51:58;15.60;91.10
21762;DHT22;11203;50.870;20.682;2023-04-15T12:54:25;15.60;92.00
21762;DHT22;11203;50.870;20.682;2023-04-15T12:56:53;15.20;98.00
21762;DHT22;11203;50.870;20.682;2023-04-15T12:59:20;15.40;99.20
21762;DHT22;11203;50.870;20.682;2023-04-15T13:01:47;15.30;99.90
21762;DHT22;11203;50.870;20.682;2023-04-15T13:04:14;15.20;99.90
21762;DHT22;11203;50.870;20.682;2023-04-15T13:06:41;15.20;99.90
21762;DHT22;11203;50.870;20.682;2023-04-15T13:09:07;15.20;99.30
21762;DHT22;11203;50.870;20.682;2023-04-15T13:11:34;15.20;99.70
21762;DHT22;11203;50.870;20.682;2023-04-15T13:14:05;15.10;96.90
21762;DHT22;11203;50.870;20.682;2023-04-15T13:16:32;15.00;96.20
21762;DHT22;11203;50.870;20.682;2023-04-15T13:18:59;14.90;96.40
21762;DHT22;11203;50.870;20.682;2023-04-15T13:21:26;15.10;97.90
21762;DHT22;11203;50.870;20.682;2023-04-15T13:23:53;14.80;99.90
21762;DHT22;11203;50.870;20.682;2023-04-15T13:26:19;14.60;99.90
21762;DHT22;11203;50.870;20.682;2023-04-15T13:28:45;14.50;99.90
21762;DHT22;11203;50.870;20.682;2023-04-15T13:31:12;14.50;99.90
21762;DHT22;11203;50.870;20.682;2023-04-15T13:33:38;14.40;99.90
21762;DHT22;11203;50.870;20.682;2023-04-15T13:36:05;14.50;99.90
21762;DHT22;11203;50.870;20.682;2023-04-15T13:38:31;14.50;99.90
21762;DHT22;11203;50.870;20.682;2023-04-15T13:40:57;14.50;99.90
21762;DHT22;11203;50.870;20.682;2023-04-15T13:43:23;14.30;99.90
21762;DHT22;11203;50.870;20.682;2023-04-15T13:45:49;14.30;99.90
21762;DHT22;11203;50.870;20.682;2023-04-15T13:48:16;14.20;99.90
21762;DHT22;11203;50.870;20.682;2023-04-15T13:50:42;14.20;99.90
21762;DHT22;11203;50.870;20.682;2023-04-15T13:53:11;14.50;99.90
21762;DHT22;11203;50.870;20.682;2023-04-15T13:55:38;14.70;99.90
21762;DHT22;11203;50.870;20.682;2023-04-15T13:58:08;14.70;99.90
21762;DHT22;11203;50.870;20.682;2023-04-15T14:00:34;14.70;99.90
21762;DHT22;11203;50.870;20.682;2023-04-15T14:03:00;14.70;99.90
21762;DHT22;11203;50.870;20.682;2023-04-15T14:05:27;14.60;99.90
21762;DHT22;11203;50.870;20.682;2023-04-15T14:07:53;14.80;99.90
21762;DHT22;11203;50.870;20.682;2023-04-15T14:10:19;14.90;99.90
21762;DHT22;11203;50.870;20.682;2023-04-15T14:12:45;15.00;98.90
21762;DHT22;11203;50.870;20.682;2023-04-15T14:15:11;14.90;97.40
21762;DHT22;11203;50.870;20.682;2023-04-15T14:17:37;15.00;96.60
21762;DHT22;11203;50.870;20.682;2023-04-15T14:20:06;15.10;95.60
21762;DHT22;11203;50.870;20.682;2023-04-15T14:22:33;15.10;95.00
21762;DHT22;11203;50.870;20.682;2023-04-15T14:24:59;15.30;95.80
21762;DHT22;11203;50.870;20.682;2023-04-15T14:27:25;15.30;95.80
21762;DHT22;11203;50.870;20.682;2023-04-15T14:29:51;15.30;93.10
21762;DHT22;11203;50.870;20.682;2023-04-15T14:32:19;15.20;94.40
21762;DHT22;11203;50.870;20.682;2023-04-15T14:34:45;15.20;94.10
21762;DHT22;11203;50.870;20.682;2023-04-15T14:37:12;15.20;94.40
21762;DHT22;11203;50.870;20.682;2023-04-15T14:39:38;15.00;93.40
21762;DHT22;11203;50.870;20.682;2023-04-15T14:42:04;15.10;93.30
21762;DHT22;11203;50.870;20.682;2023-04-15T14:44:30;15.20;91.80
21762;DHT22;11203;50.870;20.682;2023-04-15T14:46:56;15.20;90.40
21762;DHT22;11203;50.870;20.682;2023-04-15T14:49:22;15.30;91.10
21762;DHT22;11203;50.870;20.682;2023-04-15T14:51:48;15.30;90.70
21762;DHT22;11203;50.870;20.682;2023-04-15T14:54:15;15.30;90.10
21762;DHT22;11203;50.870;20.682;2023-04-15T14:56:41;15.10;90.50
21762;DHT22;11203;50.870;20.682;2023-04-15T14:59:07;15.20;90.20
21762;DHT22;11203;50.870;20.682;2023-04-15T15:01:33;15.20;90.10
21762;DHT22;11203;50.870;20.682;2023-04-15T15:04:00;15.30;91.30
21762;DHT22;11203;50.870;20.682;2023-04-15T15:06:26;15.50;92.30
21762;DHT22;11203;50.870;20.682;2023-04-15T15:08:52;15.50;91.90
21762;DHT22;11203;50.870;20.682;2023-04-15T15:11:18;15.30;91.90
21762;DHT22;11203;50.870;20.682;2023-04-15T15:13:44;15.20;92.00
21762;DHT22;11203;50.870;20.682;2023-04-15T15:16:10;15.00;92.50
21762;DHT22;11203;50.870;20.682;2023-04-15T15:18:36;14.90;93.00
21762;DHT22;11203;50.870;20.682;2023-04-15T15:21:03;14.80;93.50
21762;DHT22;11203;50.870;20.682;2023-04-15T15:23:32;14.80;94.30
21762;DHT22;11203;50.870;20.682;2023-04-15T15:25:58;14.80;94.60
21762;DHT22;11203;50.870;20.682;2023-04-15T15:28:24;14.70;94.90
21762;DHT22;11203;50.870;20.682;2023-04-15T15:30:50;14.70;95.60
21762;DHT22;11203;50.870;20.682;2023-04-15T15:33:16;14.70;96.00
21762;DHT22;11203;50.870;20.682;2023-04-15T15:35:43;14.70;96.00
21762;DHT22;11203;50.870;20.682;2023-04-15T15:38:10;14.70;95.90
21762;DHT22;11203;50.870;20.682;2023-04-15T15:40:37;14.60;96.20
21762;DHT22;11203;50.870;20.682;2023-04-15T15:43:04;14.60;96.30
21762;DHT22;11203;50.870;20.682;2023-04-15T15:45:30;14.70;96.40
21762;DHT22;11203;50.870;20.682;2023-04-15T15:47:57;14.70;95.60
21762;DHT22;11203;50.870;20.682;2023-04-15T15:50:23;14.70;95.00
21762;DHT22;11203;50.870;20.682;2023-04-15T15:52:50;14.80;95.20
21762;DHT22;11203;50.870;20.682;2023-04-15T15:55:16;14.80;95.30